sensor_id;sensor_type;location;lat;lon;timestamp;P1;durP1;ratioP1;P2;durP2;ratioP2
46607;SDS011;32330;51.936;7.184;2023-03-31T04:08:54;15.07;;;6.15;;
46607;SDS011;32330;51.936;7.184;2023-03-31T04:16:24;11.45;;;5.30;;
46607;SDS011;32330;51.936;7.184;2023-03-31T04:19:39;12.68;;;5.90;;
46607;SDS011;32330;51.936;7.184;2023-03-31T04:22:34;14.30;;;5.57;;
46607;SDS011;32330;51.936;7.184;2023-03-31T04:25:58;15.15;;;5.30;;
46607;SDS011;32330;51.936;7.184;2023-03-31T04:29:17;9.45;;;4.68;;
46607;SDS011;32330;51.936;7.184;2023-03-31T04:33:07;10.07;;;4.40;;
46607;SDS011;32330;51.936;7.184;2023-03-31T04:37:01;13.68;;;5.15;;
46607;SDS011;32330;51.936;7.184;2023-03-31T04:40:23;13.88;;;6.22;;
46607;SDS011;32330;51.936;7.184;2023-03-31T04:43:30;11.80;;;5.57;;
46607;SDS011;32330;51.936;7.184;2023-03-31T04:46:36;12.32;;;5.13;;
46607;SDS011;32330;51.936;7.184;2023-03-31T04:53:46;14.27;;;6.15;;
46607;SDS011;32330;51.936;7.184;2023-03-31T04:56:49;12.45;;;4.78;;
46607;SDS011;32330;51.936;7.184;2023-03-31T05:00:30;11.80;;;5.10;;
46607;SDS011;32330;51.936;7.184;2023-03-31T05:03:39;16.42;;;6.20;;
46607;SDS011;32330;51.936;7.184;2023-03-31T05:10:58;10.27;;;3.88;;
46607;SDS011;32330;51.936;7.184;2023-03-31T05:13:48;15.00;;;5.65;;
46607;SDS011;32330;51.936;7.184;2023-03-31T05:21:48;17.35;;;5.55;;
46607;SDS011;32330;51.936;7.184;2023-03-31T05:25:10;12.80;;;4.90;;
46607;SDS011;32330;51.936;7.184;2023-03-31T05:28:17;10.88;;;5.28;;
46607;SDS011;32330;51.936;7.184;2023-03-31T05:31:21;15.73;;;5.15;;
46607;SDS011;32330;51.936;7.184;2023-03-31T05:34:56;11.02;;;3.63;;
46607;SDS011;32330;51.936;7.184;2023-03-31T05:38:11;9.50;;;3.40;;
46607;SDS011;32330;51.936;7.184;2023-03-31T05:40:38;12.43;;;3.25;;
46607;SDS011;32330;51.936;7.184;2023-03-31T05:43:05;8.38;;;2.92;;
46607;SDS011;32330;51.936;7.184;2023-03-31T05:45:32;9.00;;;3.00;;
46607;SDS011;32330;51.936;7.184;2023-03-31T05:47:59;10.98;;;3.38;;
46607;SDS011;32330;51.936;7.184;2023-03-31T05:50:26;12.68;;;3.10;;
46607;SDS011;32330;51.936;7.184;2023-03-31T05:52:53;9.43;;;2.70;;
46607;SDS011;32330;51.936;7.184;2023-03-31T05:55:23;11.90;;;3.97;;
46607;SDS011;32330;51.936;7.184;2023-03-31T05:57:50;11.05;;;4.72;;
46607;SDS011;32330;51.936;7.184;2023-03-31T06:00:17;13.13;;;5.30;;
46607;SDS011;32330;51.936;7.184;2023-03-31T06:02:45;13.70;;;6.25;;
46607;SDS011;32330;51.936;7.184;2023-03-31T06:05:12;12.57;;;5.88;;
46607;SDS011;32330;51.936;7.184;2023-03-31T06:07:39;11.43;;;4.55;;
46607;SDS011;32330;51.936;7.184;2023-03-31T06:10:06;13.10;;;5.53;;
46607;SDS011;32330;51.936;7.184;2023-03-31T06:12:36;9.98;;;3.72;;
46607;SDS011;32330;51.936;7.184;2023-03-31T06:15:03;12.18;;;3.85;;
46607;SDS011;32330;51.936;7.184;2023-03-31T06:17:31;10.02;;;3.47;;
46607;SDS011;32330;51.936;7.184;2023-03-31T06:19:57;10.32;;;4.00;;
46607;SDS011;32330;51.936;7.184;2023-03-31T06:22:24;11.23;;;4.95;;
46607;SDS011;32330;51.936;7.184;2023-03-31T06:24:51;12.10;;;3.40;;
46607;SDS011;32330;51.936;7.184;2023-03-31T06:27:18;10.07;;;3.67;;
46607;SDS011;32330;51.936;7.184;2023-03-31T06:29:47;12.23;;;4.70;;
46607;SDS011;32330;51.936;7.184;2023-03-31T06:32:14;8.25;;;3.55;;
46607;SDS011;32330;51.936;7.184;2023-03-31T06:34:41;8.98;;;3.72;;
46607;SDS011;32330;51.936;7.184;2023-03-31T06:37:08;9.23;;;2.42;;
46607;SDS011;32330;51.936;7.184;2023-03-31T06:39:35;10.60;;;3.03;;
46607;SDS011;32330;51.936;7.184;2023-03-31T06:42:02;7.22;;;2.30;;
46607;SDS011;32330;51.936;7.184;2023-03-31T06:44:34;9.40;;;2.58;;
46607;SDS011;32330;51.936;7.184;2023-03-31T06:47:03;7.00;;;2.30;;
46607;SDS011;32330;51.936;7.184;2023-03-31T06:49:30;6.65;;;2.00;;
46607;SDS011;32330;51.936;7.184;2023-03-31T06:51:57;5.63;;;1.50;;
46607;SDS011;32330;51.936;7.184;2023-03-31T06:54:24;6.30;;;1.40;;
46607;SDS011;32330;51.936;7.184;2023-03-31T06:56:51;3.80;;;1.52;;
46607;SDS011;32330;51.936;7.184;2023-03-31T06:59:18;5.88;;;1.90;;
46607;SDS011;32330;51.936;7.184;2023-03-31T07:01:45;7.78;;;1.50;;
46607;SDS011;32330;51.936;7.184;2023-03-31T07:04:14;6.45;;;1.77;;
46607;SDS011;32330;51.936;7.184;2023-03-31T07:06:41;8.98;;;2.53;;
46607;SDS011;32330;51.936;7.184;2023-03-31T07:09:08;4.95;;;1.48;;
46607;SDS011;32330;51.936;7.184;2023-03-31T07:11:35;6.50;;;1.80;;
46607;SDS011;32330;51.936;7.184;2023-03-31T07:14:01;5.60;;;1.58;;
46607;SDS011;32330;51.936;7.184;2023-03-31T07:16:29;6.97;;;1.67;;
46607;SDS011;32330;51.936;7.184;2023-03-31T07:18:56;7.28;;;2.05;;
46607;SDS011;32330;51.936;7.184;2023-03-31T07:21:25;8.00;;;2.13;;
46607;SDS011;32330;51.936;7.184;2023-03-31T07:23:52;5.35;;;1.73;;
46607;SDS011;32330;51.936;7.184;2023-03-31T07:26:19;5.47;;;1.98;;
46607;SDS011;32330;51.936;7.184;2023-03-31T07:28:46;6.25;;;1.50;;
46607;SDS011;32330;51.936;7.184;2023-03-31T07:31:13;8.40;;;1.80;;
46607;SDS011;32330;51.936;7.184;2023-03-31T07:33:40;5.32;;;1.50;;
46607;SDS011;32330;51.936;7.184;2023-03-31T07:36:08;5.60;;;1.98;;
46607;SDS011;32330;51.936;7.184;2023-03-31T07:38:37;6.43;;;1.80;;
46607;SDS011;32330;51.936;7.184;2023-03-31T07:41:04;6.00;;;2.25;;
46607;SDS011;32330;51.936;7.184;2023-03-31T07:43:35;6.13;;;2.13;;
46607;SDS011;32330;51.936;7.184;2023-03-31T07:46:02;5.85;;;2.13;;
46607;SDS011;32330;51.936;7.184;2023-03-31T07:48:29;4.53;;;2.22;;
46607;SDS011;32330;51.936;7.184;2023-03-31T07:50:56;7.20;;;2.53;;
46607;SDS011;32330;51.936;7.184;2023-03-31T07:53:29;6.88;;;2.40;;
46607;SDS011;32330;51.936;7.184;2023-03-31T07:55:58;6.38;;;2.35;;
46607;SDS011;32330;51.936;7.184;2023-03-31T07:58:25;8.23;;;2.13;;
46607;SDS011;32330;51.936;7.184;2023-03-31T08:00:52;7.47;;;2.50;;
46607;SDS011;32330;51.936;7.184;2023-03-31T08:03:19;6.05;;;2.47;;
46607;SDS011;32330;51.936;7.184;2023-03-31T08:05:46;9.30;;;1.83;;
46607;SDS011;32330;51.936;7.184;2023-03-31T08:08:16;6.75;;;2.50;;
46607;SDS011;32330;51.936;7.184;2023-03-31T08:10:43;5.40;;;3.00;;
46607;SDS011;32330;51.936;7.184;2023-03-31T08:13:12;7.55;;;2.95;;
46607;SDS011;32330;51.936;7.184;2023-03-31T08:15:39;5.85;;;2.03;;
46607;SDS011;32330;51.936;7.184;2023-03-31T08:18:06;4.95;;;1.80;;
46607;SDS011;32330;51.936;7.184;2023-03-31T08:20:33;5.85;;;2.38;;
46607;SDS011;32330;51.936;7.184;2023-03-31T08:23:00;6.07;;;2.28;;
46607;SDS011;32330;51.936;7.184;2023-03-31T08:25:27;5.95;;;1.98;;
46607;SDS011;32330;51.936;7.184;2023-03-31T08:27:54;6.97;;;2.20;;
46607;SDS011;32330;51.936;7.184;2023-03-31T08:30:22;8.05;;;2.63;;
46607;SDS011;32330;51.936;7.184;2023-03-31T08:32:49;4.45;;;1.95;;
46607;SDS011;32330;51.936;7.184;2023-03-31T08:35:16;8.75;;;2.35;;
46607;SDS011;32330;51.936;7.184;2023-03-31T08:37:43;6.40;;;2.28;;
46607;SDS011;32330;51.936;7.184;2023-03-31T08:40:13;6.50;;;2.50;;
46607;SDS011;32330;51.936;7.184;2023-03-31T08:42:44;7.78;;;2.30;;
46607;SDS011;32330;51.936;7.184;2023-03-31T08:45:16;6.50;;;2.17;;
46607;SDS011;32330;51.936;7.184;2023-03-31T08:47:49;5.22;;;2.00;;
46607;SDS011;32330;51.936;7.184;2023-03-31T08:50:20;5.35;;;2.13;;
46607;SDS011;32330;51.936;7.184;2023-03-31T08:52:54;6.40;;;2.45;;
46607;SDS011;32330;51.936;7.184;2023-03-31T08:55:29;7.55;;;2.40;;
46607;SDS011;32330;51.936;7.184;2023-03-31T08:58:02;5.70;;;2.22;;
46607;SDS011;32330;51.936;7.184;2023-03-31T09:00:37;9.77;;;2.92;;
46607;SDS011;32330;51.936;7.184;2023-03-31T09:03:13;10.82;;;2.67;;
46607;SDS011;32330;51.936;7.184;2023-03-31T09:05:50;5.80;;;2.58;;
46607;SDS011;32330;51.936;7.184;2023-03-31T09:08:34;7.30;;;2.40;;
46607;SDS011;32330;51.936;7.184;2023-03-31T09:11:10;8.68;;;2.83;;
46607;SDS011;32330;51.936;7.184;2023-03-31T09:13:51;5.18;;;2.03;;
46607;SDS011;32330;51.936;7.184;2023-03-31T09:16:29;7.97;;;2.85;;
46607;SDS011;32330;51.936;7.184;2023-03-31T09:19:02;11.38;;;2.83;;
46607;SDS011;32330;51.936;7.184;2023-03-31T09:21:38;7.32;;;2.67;;
46607;SDS011;32330;51.936;7.184;2023-03-31T09:24:10;4.05;;;2.10;;
46607;SDS011;32330;51.936;7.184;2023-03-31T09:26:41;7.22;;;2.40;;
46607;SDS011;32330;51.936;7.184;2023-03-31T09:29:14;9.70;;;2.80;;
46607;SDS011;32330;51.936;7.184;2023-03-31T09:31:43;7.80;;;2.30;;
46607;SDS011;32330;51.936;7.184;2023-03-31T09:34:13;7.97;;;2.42;;
46607;SDS011;32330;51.936;7.184;2023-03-31T09:36:42;10.95;;;3.03;;
46607;SDS011;32330;51.936;7.184;2023-03-31T09:39:11;8.43;;;2.90;;
46607;SDS011;32330;51.936;7.184;2023-03-31T09:41:39;7.93;;;2.45;;
46607;SDS011;32330;51.936;7.184;2023-03-31T09:44:12;8.63;;;3.03;;
46607;SDS011;32330;51.936;7.184;2023-03-31T09:46:48;8.93;;;2.92;;
46607;SDS011;32330;51.936;7.184;2023-03-31T09:49:18;7.75;;;2.50;;
46607;SDS011;32330;51.936;7.184;2023-03-31T09:51:47;8.47;;;2.93;;
46607;SDS011;32330;51.936;7.184;2023-03-31T09:54:23;8.82;;;2.50;;
46607;SDS011;32330;51.936;7.184;2023-03-31T09:56:53;9.80;;;3.13;;
46607;SDS011;32330;51.936;7.184;2023-03-31T09:59:21;11.35;;;2.92;;
46607;SDS011;32330;51.936;7.184;2023-03-31T10:01:55;10.27;;;3.10;;
46607;SDS011;32330;51.936;7.184;2023-03-31T10:04:28;12.15;;;2.90;;
46607;SDS011;32330;51.936;7.184;2023-03-31T10:06:59;9.68;;;3.10;;
46607;SDS011;32330;51.936;7.184;2023-03-31T10:09:29;9.45;;;2.70;;
46607;SDS011;32330;51.936;7.184;2023-03-31T10:12:01;9.60;;;3.40;;
46607;SDS011;32330;51.936;7.184;2023-03-31T10:14:32;8.43;;;3.63;;
46607;SDS011;32330;51.936;7.184;2023-03-31T10:17:05;9.55;;;3.85;;
46607;SDS011;32330;51.936;7.184;2023-03-31T10:19:34;11.70;;;4.93;;
46607;SDS011;32330;51.936;7.184;2023-03-31T10:22:03;7.32;;;3.22;;
46607;SDS011;32330;51.936;7.184;2023-03-31T10:24:38;8.65;;;2.65;;
46607;SDS011;32330;51.936;7.184;2023-03-31T10:27:06;6.47;;;2.88;;
46607;SDS011;32330;51.936;7.184;2023-03-31T10:29:45;9.82;;;3.40;;
46607;SDS011;32330;51.936;7.184;2023-03-31T10:32:16;11.10;;;2.90;;
46607;SDS011;32330;51.936;7.184;2023-03-31T10:34:48;8.15;;;2.92;;
46607;SDS011;32330;51.936;7.184;2023-03-31T10:37:16;10.43;;;3.80;;
46607;SDS011;32330;51.936;7.184;2023-03-31T10:39:45;8.38;;;4.18;;
46607;SDS011;32330;51.936;7.184;2023-03-31T10:42:17;8.60;;;4.50;;
46607;SDS011;32330;51.936;7.184;2023-03-31T10:44:47;11.63;;;5.10;;
46607;SDS011;32330;51.936;7.184;2023-03-31T10:47:16;10.70;;;4.53;;
46607;SDS011;32330;51.936;7.184;2023-03-31T10:49:47;9.23;;;4.23;;
46607;SDS011;32330;51.936;7.184;2023-03-31T10:52:22;10.30;;;4.95;;
46607;SDS011;32330;51.936;7.184;2023-03-31T10:54:51;9.77;;;4.43;;
46607;SDS011;32330;51.936;7.184;2023-03-31T10:57:24;9.23;;;4.80;;
46607;SDS011;32330;51.936;7.184;2023-03-31T11:00:02;12.07;;;5.15;;
46607;SDS011;32330;51.936;7.184;2023-03-31T11:02:52;13.52;;;4.93;;
46607;SDS011;32330;51.936;7.184;2023-03-31T11:05:43;13.25;;;5.25;;
46607;SDS011;32330;51.936;7.184;2023-03-31T11:08:21;11.52;;;4.28;;
46607;SDS011;32330;51.936;7.184;2023-03-31T11:11:06;15.13;;;4.40;;
46607;SDS011;32330;51.936;7.184;2023-03-31T11:13:43;12.43;;;4.32;;
46607;SDS011;32330;51.936;7.184;2023-03-31T11:16:19;8.75;;;4.00;;
46607;SDS011;32330;51.936;7.184;2023-03-31T11:18:59;9.80;;;4.00;;
46607;SDS011;32330;51.936;7.184;2023-03-31T11:21:41;9.43;;;4.68;;
46607;SDS011;32330;51.936;7.184;2023-03-31T11:24:19;12.32;;;3.55;;
46607;SDS011;32330;51.936;7.184;2023-03-31T11:27:07;10.25;;;3.13;;
46607;SDS011;32330;51.936;7.184;2023-03-31T11:29:49;8.07;;;2.30;;
46607;SDS011;32330;51.936;7.184;2023-03-31T11:32:27;11.75;;;3.00;;
46607;SDS011;32330;51.936;7.184;2023-03-31T11:35:11;7.45;;;2.10;;
46607;SDS011;32330;51.936;7.184;2023-03-31T11:37:53;9.55;;;2.75;;
46607;SDS011;32330;51.936;7.184;2023-03-31T11:43:29;13.30;;;2.83;;
46607;SDS011;32330;51.936;7.184;2023-03-31T11:46:03;9.82;;;2.30;;
46607;SDS011;32330;51.936;7.184;2023-03-31T11:48:35;9.57;;;3.17;;
46607;SDS011;32330;51.936;7.184;2023-03-31T11:51:09;8.77;;;2.33;;
46607;SDS011;32330;51.936;7.184;2023-03-31T11:53:41;11.75;;;2.50;;
46607;SDS011;32330;51.936;7.184;2023-03-31T11:56:10;8.73;;;2.83;;
46607;SDS011;32330;51.936;7.184;2023-03-31T11:58:40;8.63;;;2.35;;
46607;SDS011;32330;51.936;7.184;2023-03-31T12:01:14;11.10;;;2.45;;
46607;SDS011;32330;51.936;7.184;2023-03-31T12:03:46;7.07;;;2.08;;
46607;SDS011;32330;51.936;7.184;2023-03-31T12:06:26;11.00;;;2.67;;
46607;SDS011;32330;51.936;7.184;2023-03-31T12:09:00;7.63;;;2.30;;
46607;SDS011;32330;51.936;7.184;2023-03-31T12:11:37;5.60;;;1.80;;
46607;SDS011;32330;51.936;7.184;2023-03-31T12:14:20;8.75;;;2.03;;
46607;SDS011;32330;51.936;7.184;2023-03-31T12:16:53;7.18;;;2.10;;
46607;SDS011;32330;51.936;7.184;2023-03-31T12:19:26;7.88;;;1.83;;
46607;SDS011;32330;51.936;7.184;2023-03-31T12:22:01;9.77;;;2.35;;
46607;SDS011;32330;51.936;7.184;2023-03-31T12:24:34;11.02;;;3.22;;
46607;SDS011;32330;51.936;7.184;2023-03-31T12:27:04;10.05;;;2.10;;
46607;SDS011;32330;51.936;7.184;2023-03-31T12:29:38;10.07;;;2.95;;
46607;SDS011;32330;51.936;7.184;2023-03-31T12:32:09;6.35;;;2.17;;
46607;SDS011;32330;51.936;7.184;2023-03-31T12:34:41;5.25;;;1.73;;
46607;SDS011;32330;51.936;7.184;2023-03-31T12:37:22;7.80;;;1.70;;
46607;SDS011;32330;51.936;7.184;2023-03-31T12:40:01;4.50;;;1.48;;
46607;SDS011;32330;51.936;7.184;2023-03-31T12:42:38;4.88;;;1.42;;
46607;SDS011;32330;51.936;7.184;2023-03-31T12:45:23;11.20;;;2.45;;
46607;SDS011;32330;51.936;7.184;2023-03-31T12:48:06;7.75;;;2.13;;
46607;SDS011;32330;51.936;7.184;2023-03-31T12:50:49;6.07;;;1.70;;
46607;SDS011;32330;51.936;7.184;2023-03-31T12:53:31;8.10;;;2.08;;
46607;SDS011;32330;51.936;7.184;2023-03-31T12:56:05;5.47;;;1.52;;
46607;SDS011;32330;51.936;7.184;2023-03-31T12:58:42;9.48;;;2.05;;
46607;SDS011;32330;51.936;7.184;2023-03-31T13:01:11;7.68;;;2.17;;
46607;SDS011;32330;51.936;7.184;2023-03-31T13:03:53;6.00;;;2.05;;
46607;SDS011;32330;51.936;7.184;2023-03-31T13:09:38;9.45;;;2.50;;
46607;SDS011;32330;51.936;7.184;2023-03-31T13:12:12;5.18;;;2.10;;
46607;SDS011;32330;51.936;7.184;2023-03-31T13:14:44;8.35;;;2.47;;
46607;SDS011;32330;51.936;7.184;2023-03-31T13:17:18;5.80;;;1.80;;
46607;SDS011;32330;51.936;7.184;2023-03-31T13:19:48;6.68;;;1.90;;
46607;SDS011;32330;51.936;7.184;2023-03-31T13:22:29;6.65;;;1.90;;
46607;SDS011;32330;51.936;7.184;2023-03-31T13:28:03;7.75;;;2.38;;
46607;SDS011;32330;51.936;7.184;2023-03-31T13:30:54;6.65;;;2.10;;
46607;SDS011;32330;51.936;7.184;2023-03-31T13:33:35;8.70;;;2.15;;
46607;SDS011;32330;51.936;7.184;2023-03-31T13:36:14;7.68;;;2.33;;
46607;SDS011;32330;51.936;7.184;2023-03-31T13:42:24;9.98;;;2.33;;
46607;SDS011;32330;51.936;7.184;2023-03-31T13:45:17;6.78;;;1.83;;
46607;SDS011;32330;51.936;7.184;2023-03-31T13:50:49;7.72;;;2.10;;
46607;SDS011;32330;51.936;7.184;2023-03-31T13:53:29;7.13;;;2.25;;
46607;SDS011;32330;51.936;7.184;2023-03-31T13:56:11;7.90;;;2.45;;
46607;SDS011;32330;51.936;7.184;2023-03-31T14:05:02;8.45;;;2.38;;
46607;SDS011;32330;51.936;7.184;2023-03-31T14:07:36;8.45;;;2.28;;
46607;SDS011;32330;51.936;7.184;2023-03-31T14:10:20;8.70;;;2.35;;
46607;SDS011;32330;51.936;7.184;2023-03-31T14:12:48;5.18;;;1.65;;
46607;SDS011;32330;51.936;7.184;2023-03-31T14:15:18;8.13;;;2.03;;
46607;SDS011;32330;51.936;7.184;2023-03-31T14:17:47;8.77;;;3.05;;
46607;SDS011;32330;51.936;7.184;2023-03-31T14:20:21;7.85;;;1.58;;
46607;SDS011;32330;51.936;7.184;2023-03-31T14:22:55;7.75;;;2.10;;
46607;SDS011;32330;51.936;7.184;2023-03-31T14:25:35;6.82;;;2.08;;
46607;SDS011;32330;51.936;7.184;2023-03-31T14:28:13;8.35;;;2.03;;
46607;SDS011;32330;51.936;7.184;2023-03-31T14:36:00;6.03;;;1.95;;
46607;SDS011;32330;51.936;7.184;2023-03-31T14:38:34;10.00;;;2.85;;
46607;SDS011;32330;51.936;7.184;2023-03-31T14:41:02;5.28;;;2.00;;
46607;SDS011;32330;51.936;7.184;2023-03-31T14:43:29;7.78;;;1.65;;
46607;SDS011;32330;51.936;7.184;2023-03-31T14:45:59;7.90;;;1.90;;
46607;SDS011;32330;51.936;7.184;2023-03-31T14:48:29;8.68;;;2.58;;
46607;SDS011;32330;51.936;7.184;2023-03-31T14:51:00;9.25;;;2.75;;
46607;SDS011;32330;51.936;7.184;2023-03-31T14:53:28;8.90;;;2.67;;
46607;SDS011;32330;51.936;7.184;2023-03-31T14:55:57;6.63;;;1.98;;
46607;SDS011;32330;51.936;7.184;2023-03-31T14:58:29;8.93;;;2.78;;
46607;SDS011;32330;51.936;7.184;2023-03-31T15:01:00;7.32;;;1.70;;
46607;SDS011;32330;51.936;7.184;2023-03-31T15:03:30;5.55;;;1.70;;
46607;SDS011;32330;51.936;7.184;2023-03-31T15:05:59;4.80;;;1.48;;
46607;SDS011;32330;51.936;7.184;2023-03-31T15:08:28;8.43;;;1.88;;
46607;SDS011;32330;51.936;7.184;2023-03-31T15:10:58;6.95;;;1.77;;
46607;SDS011;32330;51.936;7.184;2023-03-31T15:13:29;7.38;;;2.10;;
46607;SDS011;32330;51.936;7.184;2023-03-31T15:15:59;9.05;;;2.03;;
46607;SDS011;32330;51.936;7.184;2023-03-31T15:18:45;6.47;;;1.95;;
46607;SDS011;32330;51.936;7.184;2023-03-31T15:21:17;5.45;;;1.70;;
46607;SDS011;32330;51.936;7.184;2023-03-31T15:23:46;5.80;;;1.50;;
46607;SDS011;32330;51.936;7.184;2023-03-31T15:26:16;7.90;;;2.15;;
46607;SDS011;32330;51.936;7.184;2023-03-31T15:28:48;7.78;;;1.70;;
46607;SDS011;32330;51.936;7.184;2023-03-31T15:31:18;6.90;;;1.75;;
46607;SDS011;32330;51.936;7.184;2023-03-31T15:33:46;9.32;;;2.80;;
46607;SDS011;32330;51.936;7.184;2023-03-31T15:36:13;4.82;;;1.80;;
46607;SDS011;32330;51.936;7.184;2023-03-31T15:38:40;7.70;;;1.52;;
46607;SDS011;32330;51.936;7.184;2023-03-31T15:41:11;5.40;;;1.45;;
46607;SDS011;32330;51.936;7.184;2023-03-31T15:43:44;4.07;;;1.85;;
46607;SDS011;32330;51.936;7.184;2023-03-31T15:46:18;7.93;;;2.50;;
46607;SDS011;32330;51.936;7.184;2023-03-31T15:48:52;4.60;;;1.67;;
46607;SDS011;32330;51.936;7.184;2023-03-31T15:51:23;7.20;;;1.50;;
46607;SDS011;32330;51.936;7.184;2023-03-31T15:54:01;4.57;;;0.93;;
46607;SDS011;32330;51.936;7.184;2023-03-31T15:56:29;6.35;;;1.38;;
46607;SDS011;32330;51.936;7.184;2023-03-31T15:59:02;5.43;;;1.50;;
46607;SDS011;32330;51.936;7.184;2023-03-31T16:01:31;6.65;;;2.00;;
46607;SDS011;32330;51.936;7.184;2023-03-31T16:04:03;3.78;;;1.30;;
46607;SDS011;32330;51.936;7.184;2023-03-31T16:06:35;4.53;;;1.77;;
46607;SDS011;32330;51.936;7.184;2023-03-31T16:09:08;4.88;;;1.70;;
46607;SDS011;32330;51.936;7.184;2023-03-31T16:11:38;4.35;;;1.50;;
46607;SDS011;32330;51.936;7.184;2023-03-31T16:14:09;5.87;;;2.20;;
46607;SDS011;32330;51.936;7.184;2023-03-31T16:16:44;2.83;;;1.25;;
46607;SDS011;32330;51.936;7.184;2023-03-31T16:19:15;6.03;;;1.70;;
46607;SDS011;32330;51.936;7.184;2023-03-31T16:21:47;5.70;;;1.90;;
46607;SDS011;32330;51.936;7.184;2023-03-31T16:24:17;4.97;;;1.75;;
46607;SDS011;32330;51.936;7.184;2023-03-31T16:26:45;4.75;;;1.35;;
46607;SDS011;32330;51.936;7.184;2023-03-31T16:29:20;5.20;;;1.13;;
46607;SDS011;32330;51.936;7.184;2023-03-31T16:31:48;3.83;;;1.60;;
46607;SDS011;32330;51.936;7.184;2023-03-31T16:34:16;3.22;;;0.90;;
46607;SDS011;32330;51.936;7.184;2023-03-31T16:36:43;3.83;;;1.10;;
46607;SDS011;32330;51.936;7.184;2023-03-31T16:39:11;4.38;;;1.52;;
46607;SDS011;32330;51.936;7.184;2023-03-31T16:41:39;7.70;;;1.42;;
46607;SDS011;32330;51.936;7.184;2023-03-31T16:44:08;5.85;;;1.73;;
46607;SDS011;32330;51.936;7.184;2023-03-31T16:46:36;6.38;;;1.30;;
46607;SDS011;32330;51.936;7.184;2023-03-31T16:49:03;3.78;;;1.75;;
46607;SDS011;32330;51.936;7.184;2023-03-31T16:51:31;3.92;;;1.33;;
46607;SDS011;32330;51.936;7.184;2023-03-31T16:53:58;4.53;;;1.20;;
46607;SDS011;32330;51.936;7.184;2023-03-31T16:56:25;5.72;;;2.28;;
46607;SDS011;32330;51.936;7.184;2023-03-31T16:58:53;6.85;;;3.55;;
46607;SDS011;32330;51.936;7.184;2023-03-31T17:01:20;6.25;;;1.73;;
46607;SDS011;32330;51.936;7.184;2023-03-31T17:03:47;4.10;;;1.40;;
46607;SDS011;32330;51.936;7.184;2023-03-31T17:06:14;2.70;;;1.10;;
46607;SDS011;32330;51.936;7.184;2023-03-31T17:08:43;3.72;;;1.30;;
46607;SDS011;32330;51.936;7.184;2023-03-31T17:11:10;5.07;;;1.70;;
46607;SDS011;32330;51.936;7.184;2023-03-31T17:13:38;4.60;;;2.40;;
46607;SDS011;32330;51.936;7.184;2023-03-31T17:16:07;5.35;;;1.50;;
46607;SDS011;32330;51.936;7.184;2023-03-31T17:18:35;2.97;;;1.00;;
46607;SDS011;32330;51.936;7.184;2023-03-31T17:21:03;3.45;;;0.93;;
46607;SDS011;32330;51.936;7.184;2023-03-31T17:23:31;3.70;;;0.77;;
46607;SDS011;32330;51.936;7.184;2023-03-31T17:26:00;3.30;;;1.05;;
46607;SDS011;32330;51.936;7.184;2023-03-31T17:28:28;3.55;;;1.55;;
46607;SDS011;32330;51.936;7.184;2023-03-31T17:30:55;2.35;;;1.02;;
46607;SDS011;32330;51.936;7.184;2023-03-31T17:33:23;2.75;;;1.45;;
46607;SDS011;32330;51.936;7.184;2023-03-31T17:35:54;2.22;;;1.20;;
46607;SDS011;32330;51.936;7.184;2023-03-31T17:38:22;3.55;;;1.50;;
46607;SDS011;32330;51.936;7.184;2023-03-31T17:40:51;10.15;;;5.72;;
46607;SDS011;32330;51.936;7.184;2023-03-31T17:43:46;2.85;;;1.17;;
46607;SDS011;32330;51.936;7.184;2023-03-31T17:46:14;3.63;;;1.35;;
46607;SDS011;32330;51.936;7.184;2023-03-31T17:48:42;3.47;;;1.20;;
46607;SDS011;32330;51.936;7.184;2023-03-31T17:51:10;3.03;;;1.10;;
46607;SDS011;32330;51.936;7.184;2023-03-31T17:53:41;4.57;;;1.90;;
46607;SDS011;32330;51.936;7.184;2023-03-31T17:56:09;4.15;;;1.80;;
46607;SDS011;32330;51.936;7.184;2023-03-31T17:58:40;5.85;;;2.17;;
46607;SDS011;32330;51.936;7.184;2023-03-31T18:01:09;5.68;;;2.03;;
46607;SDS011;32330;51.936;7.184;2023-03-31T18:03:36;5.28;;;2.03;;
46607;SDS011;32330;51.936;7.184;2023-03-31T18:06:04;5.00;;;2.22;;
46607;SDS011;32330;51.936;7.184;2023-03-31T18:08:32;4.35;;;1.58;;
46607;SDS011;32330;51.936;7.184;2023-03-31T18:11:00;4.32;;;1.70;;
46607;SDS011;32330;51.936;7.184;2023-03-31T18:13:29;3.67;;;1.63;;
46607;SDS011;32330;51.936;7.184;2023-03-31T18:15:56;3.20;;;1.20;;
46607;SDS011;32330;51.936;7.184;2023-03-31T18:18:24;3.78;;;1.10;;
46607;SDS011;32330;51.936;7.184;2023-03-31T18:20:53;3.50;;;1.05;;
46607;SDS011;32330;51.936;7.184;2023-03-31T18:23:20;3.90;;;1.23;;
46607;SDS011;32330;51.936;7.184;2023-03-31T18:25:48;4.00;;;1.08;;
46607;SDS011;32330;51.936;7.184;2023-03-31T18:28:16;4.32;;;1.00;;
46607;SDS011;32330;51.936;7.184;2023-03-31T18:30:43;3.05;;;1.65;;
46607;SDS011;32330;51.936;7.184;2023-03-31T18:33:11;2.80;;;1.33;;
46607;SDS011;32330;51.936;7.184;2023-03-31T18:35:40;3.75;;;1.17;;
46607;SDS011;32330;51.936;7.184;2023-03-31T18:38:07;2.58;;;0.90;;
46607;SDS011;32330;51.936;7.184;2023-03-31T18:40:34;3.72;;;1.40;;
46607;SDS011;32330;51.936;7.184;2023-03-31T18:43:01;3.35;;;1.08;;
46607;SDS011;32330;51.936;7.184;2023-03-31T18:45:28;3.03;;;1.10;;
46607;SDS011;32330;51.936;7.184;2023-03-31T18:47:56;3.55;;;1.60;;
46607;SDS011;32330;51.936;7.184;2023-03-31T18:50:23;4.35;;;1.70;;
46607;SDS011;32330;51.936;7.184;2023-03-31T18:52:51;6.30;;;1.90;;
46607;SDS011;32330;51.936;7.184;2023-03-31T18:55:18;3.88;;;1.50;;
46607;SDS011;32330;51.936;7.184;2023-03-31T18:57:46;3.28;;;1.48;;
46607;SDS011;32330;51.936;7.184;2023-03-31T19:00:13;4.68;;;1.75;;
46607;SDS011;32330;51.936;7.184;2023-03-31T19:02:41;5.05;;;3.08;;
46607;SDS011;32330;51.936;7.184;2023-03-31T19:05:08;8.27;;;3.38;;
46607;SDS011;32330;51.936;7.184;2023-03-31T19:07:35;4.03;;;2.38;;
46607;SDS011;32330;51.936;7.184;2023-03-31T19:10:04;6.45;;;2.08;;
46607;SDS011;32330;51.936;7.184;2023-03-31T19:12:31;6.45;;;2.45;;
46607;SDS011;32330;51.936;7.184;2023-03-31T19:14:59;4.07;;;2.15;;
46607;SDS011;32330;51.936;7.184;2023-03-31T19:17:26;7.10;;;2.38;;
46607;SDS011;32330;51.936;7.184;2023-03-31T19:19:53;6.10;;;2.60;;
46607;SDS011;32330;51.936;7.184;2023-03-31T19:22:20;4.45;;;2.33;;
46607;SDS011;32330;51.936;7.184;2023-03-31T19:24:46;7.88;;;2.80;;
46607;SDS011;32330;51.936;7.184;2023-03-31T19:27:15;5.57;;;2.60;;
46607;SDS011;32330;51.936;7.184;2023-03-31T19:29:42;7.03;;;2.25;;
46607;SDS011;32330;51.936;7.184;2023-03-31T19:32:08;4.80;;;2.40;;
46607;SDS011;32330;51.936;7.184;2023-03-31T19:34:36;5.45;;;2.28;;
46607;SDS011;32330;51.936;7.184;2023-03-31T19:37:02;4.85;;;2.55;;
46607;SDS011;32330;51.936;7.184;2023-03-31T19:39:30;5.20;;;2.72;;
46607;SDS011;32330;51.936;7.184;2023-03-31T19:41:57;5.05;;;2.47;;
46607;SDS011;32330;51.936;7.184;2023-03-31T19:44:25;7.03;;;2.25;;
46607;SDS011;32330;51.936;7.184;2023-03-31T19:46:52;8.15;;;2.25;;
46607;SDS011;32330;51.936;7.184;2023-03-31T19:49:19;4.63;;;1.83;;
46607;SDS011;32330;51.936;7.184;2023-03-31T19:51:46;8.73;;;2.03;;
46607;SDS011;32330;51.936;7.184;2023-03-31T19:54:13;5.38;;;1.73;;
46607;SDS011;32330;51.936;7.184;2023-03-31T19:56:40;6.53;;;2.08;;
46607;SDS011;32330;51.936;7.184;2023-03-31T19:59:07;3.25;;;1.50;;
46607;SDS011;32330;51.936;7.184;2023-03-31T20:01:35;5.78;;;1.75;;
46607;SDS011;32330;51.936;7.184;2023-03-31T20:04:02;5.28;;;1.80;;
46607;SDS011;32330;51.936;7.184;2023-03-31T20:06:30;6.10;;;2.22;;
46607;SDS011;32330;51.936;7.184;2023-03-31T20:09:01;6.53;;;2.25;;
46607;SDS011;32330;51.936;7.184;2023-03-31T20:11:30;6.50;;;2.53;;
46607;SDS011;32330;51.936;7.184;2023-03-31T20:13:57;5.40;;;2.63;;
46607;SDS011;32330;51.936;7.184;2023-03-31T20:16:25;7.10;;;2.67;;